createdAt,value
2022-10-06T00:08:21.429Z,0.10
2022-10-06T00:20:22.369Z,0.07
2022-10-06T00:32:22.345Z,0.00
2022-10-06T00:44:22.797Z,0.00
2022-10-06T00:56:23.235Z,0.00
2022-10-06T01:08:23.731Z,0.00
2022-10-06T01:20:24.155Z,0.00
2022-10-06T01:32:24.594Z,0.05
2022-10-06T01:44:25.062Z,0.00
2022-10-06T01:56:25.516Z,0.00
2022-10-06T02:08:26.317Z,0.08
2022-10-06T02:20:26.408Z,0.03
2022-10-06T02:32:26.883Z,0.01
2022-10-06T02:44:27.297Z,0.12
2022-10-06T02:56:27.732Z,0.00
2022-10-06T03:08:28.624Z,0.59
2022-10-06T03:20:28.669Z,0.00
2022-10-06T03:32:29.172Z,0.01
2022-10-06T03:44:29.604Z,0.00
2022-10-06T03:56:30.027Z,0.00
2022-10-06T04:08:30.834Z,0.00
2022-10-06T04:20:30.947Z,0.00
2022-10-06T04:32:31.389Z,0.08
2022-10-06T04:44:31.865Z,0.04
2022-10-06T04:56:32.306Z,0.01
2022-10-06T05:08:33.148Z,0.01
2022-10-06T05:20:33.157Z,0.00
2022-10-06T05:32:36.077Z,0.00
2022-10-06T05:44:34.110Z,0.00
2022-10-06T05:56:34.584Z,0.02
2022-10-06T06:08:34.998Z,0.00
2022-10-06T06:20:35.487Z,0.00
2022-10-06T06:32:35.902Z,0.00
2022-10-06T06:44:36.398Z,0.29
2022-10-06T06:56:36.876Z,0.04
2022-10-06T07:08:37.225Z,0.05
2022-10-06T07:20:37.752Z,0.08
2022-10-06T07:32:38.200Z,0.71
2022-10-06T07:44:38.629Z,1.01
2022-10-06T07:56:39.088Z,0.19
2022-10-06T08:08:39.585Z,0.09
2022-10-06T08:20:40.068Z,0.27
2022-10-06T08:32:40.488Z,0.37
2022-10-06T08:44:40.943Z,0.34
2022-10-06T08:56:41.379Z,0.26
2022-10-06T09:08:41.887Z,0.25
2022-10-06T09:20:42.314Z,0.34
2022-10-06T09:32:42.750Z,0.74
2022-10-06T09:44:43.143Z,0.71
2022-10-06T09:56:43.654Z,0.72
2022-10-06T10:08:44.104Z,0.79
2022-10-06T10:20:44.606Z,0.53
2022-10-06T10:32:45.062Z,1.67
2022-10-06T10:44:45.570Z,0.88
2022-10-06T10:56:46.000Z,0.77
2022-10-06T11:08:46.443Z,0.71
2022-10-06T11:20:46.833Z,0.98
2022-10-06T11:32:47.339Z,1.32
2022-10-06T11:44:47.857Z,0.47
2022-10-06T11:56:48.259Z,1.21
2022-10-06T12:08:48.630Z,0.75
2022-10-06T12:20:49.140Z,1.08
2022-10-06T12:32:49.600Z,1.20
2022-10-06T12:44:50.072Z,0.80
2022-10-06T12:56:50.509Z,0.72
2022-10-06T13:08:50.968Z,1.03
2022-10-06T13:20:51.422Z,0.70
2022-10-06T13:32:51.872Z,0.75
2022-10-06T13:44:52.399Z,0.57
2022-10-06T13:56:52.835Z,0.50
2022-10-06T14:08:53.260Z,0.38
2022-10-06T14:20:53.693Z,0.48
2022-10-06T14:32:54.154Z,0.24
2022-10-06T14:44:54.603Z,0.52
2022-10-06T14:56:55.078Z,0.19
2022-10-06T15:08:55.507Z,0.50
2022-10-06T15:20:55.977Z,0.46
2022-10-06T15:32:56.460Z,0.25
2022-10-06T15:44:56.893Z,0.09
2022-10-06T15:56:57.307Z,0.00
2022-10-06T16:08:57.825Z,0.37
2022-10-06T16:20:58.273Z,0.02
2022-10-06T16:32:58.672Z,0.00
2022-10-06T16:44:59.164Z,0.00
2022-10-06T16:56:59.614Z,0.33
2022-10-06T17:09:00.109Z,0.06
2022-10-06T17:21:00.546Z,0.10
2022-10-06T17:33:00.981Z,0.00
2022-10-06T17:45:01.451Z,0.01
2022-10-06T17:57:01.863Z,0.00
2022-10-06T18:09:02.368Z,0.01
2022-10-06T18:21:02.809Z,0.00
2022-10-06T18:45:03.734Z,0.00
2022-10-06T18:57:04.147Z,0.00
2022-10-06T19:09:04.628Z,0.00
2022-10-06T19:21:09.530Z,0.00
2022-10-06T19:33:05.550Z,0.00
2022-10-06T19:45:05.990Z,0.00
2022-10-06T19:57:06.433Z,0.00
2022-10-06T20:09:06.891Z,0.00
2022-10-06T20:21:07.325Z,0.00
2022-10-06T20:33:07.811Z,0.00
2022-10-06T20:45:10.949Z,0.00
2022-10-06T20:57:08.680Z,0.00
2022-10-06T21:09:09.160Z,0.00
2022-10-06T21:21:09.602Z,0.00
2022-10-06T21:33:10.020Z,0.00
2022-10-06T21:45:10.511Z,0.00
2022-10-06T21:57:10.976Z,0.00
2022-10-06T22:09:11.419Z,0.00
2022-10-06T22:21:11.857Z,0.00
2022-10-06T22:33:12.312Z,0.00
2022-10-06T22:45:12.782Z,0.00
2022-10-06T22:57:13.258Z,0.00
2022-10-06T23:09:13.678Z,0.00
2022-10-06T23:21:14.127Z,0.00
2022-10-06T23:33:14.607Z,0.06
2022-10-06T23:45:15.038Z,0.00
2022-10-06T23:57:15.459Z,0.07
